Latest Weather Observations for Strahan

IDT60801

Issued at 8:31 am EDT Saturday 20 December 2014 (issued every 30 minutes, with the page automatically refreshed every 10 minutes)

About weather observations | Map of weather stations | Latest weather observations for TAS | Other Formats
Station Details ID: 097072 Name: STRAHAN AERODROME Lat: -42.16 Lon: 145.29 Height: 21.0 m
Data from the previous 72 hours. | See also: Recent months at Strahan
Date/Time
EDT
Temp
°C
App
Temp
°C
Dew
Point
Rel
Hum
%
Delta-T
°C
Wind Press
QNH
hPa
Press
MSL
hPa
Rain
since 9 am
mm
Dir
 
Spd
km/h
Gust
km/h
Spd
kts
Gust
kts
20/08:30am 14.1 10.5 13.0 93 0.6 W 24 33 13 18 1014.1 1014.1 5.0
20/08:19am 14.7 12.1 13.7 94 0.6 W 20 28 11 15 1013.9 1013.9 5.0
20/08:09am 14.5 11.9 13.7 95 0.4 W 20 28 11 15 1013.8 1013.8 5.0
20/08:00am 14.6 11.7 14.1 97 0.3 W 22 28 12 15 1013.7 1013.7 5.0
20/07:43am 14.5 12.0 14.2 98 0.2 W 20 26 11 14 1013.5 1013.5 5.0
20/07:40am 14.5 12.1 14.3 99 0.1 W 20 26 11 14 1013.4 1013.4 5.0
20/07:30am 14.4 11.9 14.2 99 0.1 W 20 28 11 15 1013.3 1013.3 5.0
20/07:23am 14.2 11.7 14.0 99 0.1 W 20 28 11 15 1013.3 1013.3 5.0
20/07:18am 14.2 11.7 14.0 99 0.1 W 20 28 11 15 1013.2 1013.2 5.0
20/07:01am 14.2 11.9 14.0 99 0.1 W 19 26 10 14 1013.0 1013.0 5.0
20/07:00am 14.1 11.7 13.9 99 0.1 W 19 26 10 14 1013.0 1013.0 5.0
20/06:54am 13.9 11.5 13.7 99 0.1 W 19 26 10 14 1013.0 1013.0 5.0
20/06:36am 13.7 10.6 13.5 99 0.1 W 22 35 12 19 1012.8 1012.8 5.0
20/06:30am 13.6 10.5 13.4 99 0.1 WNW 22 30 12 16 1012.8 1012.8 5.0
20/05:30am 13.6 10.5 13.4 99 0.1 W 22 30 12 16 1012.3 1012.3 4.4
20/05:11am 13.8 10.0 13.6 99 0.1 WNW 26 35 14 19 1012.2 1012.2 4.2
20/05:00am 13.8 10.4 13.6 99 0.1 WNW 24 37 13 20 1012.2 1012.2 4.2
20/04:30am 13.7 9.9 13.5 99 0.1 WNW 26 35 14 19 1012.2 1012.2 4.2
20/04:00am 13.5 9.2 13.3 99 0.1 WNW 28 35 15 19 1012.3 1012.3 4.2
20/03:53am 13.4 9.1 13.2 99 0.1 WNW 28 37 15 20 1012.3 1012.3 4.2
20/03:30am 13.2 8.8 13.0 99 0.1 NW 28 41 15 22 1012.4 1012.4 4.0
20/03:00am 13.1 9.1 12.9 99 0.1 NW 26 33 14 18 1012.7 1012.7 3.6
20/02:32am 13.0 9.3 12.7 98 0.2 WNW 24 33 13 18 1013.1 1013.1 3.0
20/02:30am 12.9 9.2 12.6 98 0.2 WNW 24 33 13 18 1013.1 1013.1 3.0
20/02:21am 13.0 8.5 12.7 98 0.2 NW 28 46 15 25 1013.2 1013.2 3.0
20/02:17am 13.1 9.8 12.9 99 0.1 NW 22 46 12 25 1013.2 1013.2 3.0
20/02:13am 13.1 10.4 12.9 99 0.1 NNW 19 24 10 13 1013.3 1013.3 2.8
20/02:00am 12.9 10.1 12.7 99 0.1 NNW 19 26 10 14 1013.5 1013.5 2.8
20/01:46am 12.4 9.8 12.1 98 0.2 NNW 17 20 9 11 1013.7 1013.7 2.8
20/01:30am 12.2 7.9 11.9 98 0.2 NW 26 39 14 21 1013.8 1013.8 2.8
20/01:00am 12.8 8.6 12.5 98 0.2 NNW 26 35 14 19 1014.1 1014.1 1.6
20/12:59am 12.8 8.6 12.5 98 0.2 NNW 26 35 14 19 1014.2 1014.2 1.6
20/12:30am 12.7 8.9 12.4 98 0.2 NW 24 35 13 19 1014.3 1014.3 1.0
20/12:15am 12.5 10.0 12.2 98 0.2 NNW 17 22 9 12 1014.5 1014.5 1.0
20/12:12am 12.4 9.8 12.1 98 0.2 NNW 17 22 9 12 1014.6 1014.6 1.0
20/12:09am 12.4 9.8 12.1 98 0.2 NNW 17 22 9 12 1014.6 1014.6 1.0
20/12:00am 11.8 9.4 11.5 98 0.2 N 15 20 8 11 1014.8 1014.8 1.0
 
Date/Time
EDT
Temp
°C
App
Temp
°C
Dew
Point
Rel
Hum
%
Delta-T
°C
Wind Press
QNH
hPa
Press
MSL
hPa
Rain
since 9 am
mm
Dir
 
Spd
km/h
Gust
km/h
Spd
kts
Gust
kts
19/11:58pm 11.6 9.2 11.3 98 0.2 N 15 20 8 11 1014.8 1014.8 1.0
19/11:44pm 11.6 9.5 11.3 98 0.2 N 13 20 7 11 1015.0 1015.0 1.0
19/11:30pm 11.6 9.5 11.3 98 0.2 N 13 20 7 11 1015.1 1015.1 0.8
19/11:17pm 11.9 9.6 11.6 98 0.2 N 15 19 8 10 1015.2 1015.2 0.4
19/11:01pm 12.1 9.4 11.8 98 0.2 NNW 17 20 9 11 1015.4 1015.4 0.4
19/11:00pm 12.1 9.4 11.8 98 0.2 NNW 17 20 9 11 1015.4 1015.4 0.4
19/10:30pm 11.8 7.1 10.7 93 0.6 NW 26 35 14 19 1015.8 1015.7 0.2
19/10:28pm 11.8 6.7 10.7 93 0.6 NW 28 35 15 19 1015.8 1015.7 0.2
19/10:00pm 12.2 8.6 10.6 90 0.8 NNW 20 30 11 16 1015.9 1015.8 0.0
19/09:30pm 12.1 8.3 9.8 86 1.2 NW 20 28 11 15 1015.8 1015.7 0.0
19/09:00pm 13.1 10.0 8.8 75 2.2 NW 15 20 8 11 1015.9 1015.8 0.0
19/08:30pm 13.1 7.1 8.6 74 2.3 WNW 30 39 16 21 1016.0 1015.9 0.0
19/08:00pm 13.4 9.1 8.0 70 2.7 NW 20 28 11 15 1015.7 1015.6 0.0
19/07:30pm 13.4 9.7 7.8 69 2.8 NW 17 24 9 13 1015.5 1015.5 0.0
19/07:00pm 13.6 10.5 8.9 73 2.4 NNW 15 20 8 11 1015.5 1015.5 0.0
19/06:30pm 13.8 10.7 8.8 72 2.5 NNW 15 20 8 11 1015.4 1015.4 0.0
19/06:00pm 13.7 9.8 8.5 71 2.6 NNW 19 26 10 14 1015.5 1015.5 0.0
19/05:30pm 13.7 10.0 8.1 69 2.8 NNW 17 24 9 13 1015.4 1015.4 0.0
19/05:00pm 13.2 8.8 7.4 68 2.8 NW 20 26 11 14 1015.8 1015.7 0.0
19/04:30pm 13.2 8.2 7.9 70 2.6 NW 24 32 13 17 1015.8 1015.7 0.0
19/04:00pm 13.4 9.4 6.7 64 3.2 WNW 17 24 9 13 1015.8 1015.7 0.0
19/03:30pm 14.7 10.7 6.5 58 4.0 WNW 17 24 9 13 1015.5 1015.5 0.0
19/03:00pm 14.8 9.7 6.1 56 4.2 WNW 22 30 12 16 1015.7 1015.6 0.0
19/02:30pm 16.0 11.3 5.9 51 4.9 WNW 20 32 11 17 1015.3 1015.3 0.0
19/02:00pm 16.4 11.8 5.7 49 5.2 WNW 19 28 10 15 1015.3 1015.3 0.0
19/01:30pm 15.6 11.2 6.6 55 4.4 NW 19 30 10 16 1015.2 1015.2 0.0
19/01:00pm 15.5 11.2 5.1 50 4.9 WNW 17 26 9 14 1015.1 1015.1 0.0
19/12:30pm 16.1 12.1 6.5 53 4.7 W 17 28 9 15 1015.1 1015.1 0.0
19/12:00pm 16.4 12.0 7.3 55 4.5 W 20 32 11 17 1015.2 1015.2 0.0
19/11:30am 15.6 10.4 5.5 51 4.8 W 22 33 12 18 1015.0 1015.0 0.0
19/11:00am 15.4 10.4 6.4 55 4.4 W 22 32 12 17 1014.7 1014.7 0.0
19/10:30am 15.3 10.8 6.8 57 4.2 W 20 28 11 15 1014.7 1014.7 0.0
19/10:00am 14.5 10.1 7.3 62 3.5 WSW 20 28 11 15 1014.7 1014.7 0.0
19/09:30am 12.7 8.2 6.1 64 3.1 W 19 26 10 14 1014.5 1014.5 0.0
19/09:00am 12.6 8.5 6.0 64 3.1 WSW 17 24 9 13 1014.2 1014.2 11.0
19/08:30am 11.9 8.3 6.6 70 2.5 SW 15 24 8 13 1014.0 1014.0 11.0
19/08:00am 11.7 9.0 7.2 74 2.2 SW 11 15 6 8 1013.6 1013.6 11.0
19/07:30am 11.9 9.7 7.8 76 2.0 SSW 9 13 5 7 1013.2 1013.2 11.0
19/07:00am 10.6 8.7 8.9 89 0.8 SSW 9 13 5 7 1012.7 1012.7 11.0
19/06:30am 8.4 5.5 6.7 89 0.8 SSW 11 15 6 8 1012.3 1012.3 11.0
19/06:00am 8.2 4.8 5.8 85 1.1 WSW 13 15 7 8 1012.0 1012.0 11.0
19/05:30am 7.8 5.2 5.9 88 0.9 SW 9 11 5 6 1011.6 1011.6 10.8
19/05:00am 8.2 4.1 6.2 87 0.9 SW 17 22 9 12 1011.2 1011.2 10.8
19/04:30am 8.6 5.8 6.9 89 0.8 SW 11 13 6 7 1010.8 1010.8 10.8
19/04:00am 9.0 6.3 7.5 90 0.7 WSW 11 17 6 9 1010.6 1010.6 10.8
19/03:30am 9.0 5.6 7.6 91 0.7 SW 15 19 8 10 1010.5 1010.5 10.8
19/03:00am 8.1 5.7 7.2 94 0.4 SW 9 11 5 6 1010.4 1010.4 10.8
19/02:30am 8.1 6.1 7.2 94 0.4 SW 7 9 4 5 1010.1 1010.1 10.8
19/02:00am 7.8 6.7 6.9 94 0.4 W 2 6 1 3 1010.0 1010.0 10.8
19/01:30am 8.3 6.8 6.9 91 0.7 SSW 4 7 2 4 1009.9 1009.9 10.8
19/01:00am 9.1 4.8 7.7 91 0.7 SSW 20 30 11 16 1009.7 1009.7 10.8
19/12:34am 9.8 7.4 8.7 93 0.5 WSW 11 15 6 8 1009.5 1009.5 10.4
19/12:30am 9.9 7.2 8.8 93 0.5 SW 13 17 7 9 1009.5 1009.5 10.4
19/12:09am 10.1 6.4 8.0 87 1.0 WSW 17 39 9 21 1009.4 1009.4 8.8
19/12:00am 10.2 7.2 7.6 84 1.2 WSW 13 17 7 9 1009.0 1009.0 7.4
 
Date/Time
EDT
Temp
°C
App
Temp
°C
Dew
Point
Rel
Hum
%
Delta-T
°C
Wind Press
QNH
hPa
Press
MSL
hPa
Rain
since 9 am
mm
Dir
 
Spd
km/h
Gust
km/h
Spd
kts
Gust
kts
18/11:30pm 11.2 7.3 7.3 77 1.9 WSW 17 24 9 13 1008.9 1008.9 7.2
18/11:00pm 11.5 7.1 7.2 75 2.1 WSW 20 28 11 15 1008.8 1008.8 7.0
18/10:30pm 11.7 7.4 8.0 78 1.8 WSW 20 30 11 16 1008.6 1008.6 7.0
18/10:00pm 11.2 6.9 7.7 79 1.7 W 20 28 11 15 1008.4 1008.4 7.0
18/09:30pm 12.5 8.3 7.6 72 2.4 W 19 28 10 15 1008.1 1008.1 6.8
18/09:00pm 12.3 7.8 7.0 70 2.6 W 20 28 11 15 1007.8 1007.8 6.8
18/08:30pm 12.7 8.9 7.6 71 2.5 WSW 17 22 9 12 1007.6 1007.6 6.8
18/08:00pm 13.9 9.7 7.4 65 3.2 WSW 19 30 10 16 1007.1 1007.1 6.8
18/07:30pm 14.6 10.2 8.8 68 2.9 W 22 33 12 18 1006.6 1006.6 6.8
18/07:00pm 14.0 8.4 7.3 64 3.3 WSW 26 35 14 19 1006.1 1006.1 6.8
18/06:30pm 14.4 8.5 7.7 64 3.3 W 28 39 15 21 1005.3 1005.3 6.8
18/06:00pm 14.9 9.8 9.1 68 3.0 W 26 35 14 19 1004.9 1004.9 6.8
18/05:30pm 15.8 11.3 11.4 75 2.4 W 26 35 14 19 1004.5 1004.5 6.8
18/05:00pm 13.5 8.6 11.2 86 1.2 WNW 28 41 15 22 1004.0 1004.0 6.8
18/04:30pm 15.8 10.2 11.6 76 2.3 NW 32 41 17 22 1003.5 1003.5 6.4
18/04:00pm 14.7 9.2 12.4 86 1.3 NW 33 41 18 22 1003.3 1003.3 6.4
18/03:54pm 14.5 9.3 12.7 89 1.0 NW 32 39 17 21 1003.2 1003.2 6.4
18/03:35pm 12.3 6.8 10.5 89 0.9 NW 30 41 16 22 1003.1 1003.1 6.2
18/03:30pm 12.6 6.7 10.3 86 1.2 NNW 32 41 17 22 1003.0 1003.0 5.6
18/03:00pm 14.0 8.1 10.6 80 1.8 NW 32 41 17 22 1002.8 1002.8 5.6
18/02:30pm 13.7 8.0 11.0 84 1.4 NNW 32 48 17 26 1002.6 1002.6 5.6
18/02:00pm 12.9 8.5 11.6 92 0.7 NNW 26 35 14 19 1002.7 1002.7 5.6
18/01:30pm 12.1 6.9 11.6 97 0.3 NNW 30 39 16 21 1002.6 1002.6 5.4
18/01:25pm 11.9 7.0 11.4 97 0.3 NNW 28 39 15 21 1002.6 1002.6 5.4
18/01:00pm 11.6 5.6 10.7 94 0.5 NW 33 48 18 26 1002.5 1002.5 4.8
18/12:42pm 13.0 8.1 11.4 90 0.8 NNW 28 50 15 27 1002.4 1002.4 3.4
18/12:41pm 13.2 8.0 11.6 90 0.9 NNW 30 43 16 23 1002.2 1002.2 2.8
18/12:39pm 13.5 8.8 11.9 90 0.9 NNW 28 46 15 25 1001.8 1001.8 1.8
18/12:30pm 14.0 8.5 11.9 87 1.1 N 32 46 17 25 1001.7 1001.7 1.2
18/12:16pm 14.1 8.5 12.1 88 1.1 N 33 44 18 24 1001.5 1001.5 1.2
18/12:00pm 13.8 9.2 12.4 91 0.8 NNW 28 41 15 22 1001.5 1001.5 1.2
18/11:57am 13.8 9.2 12.2 90 0.9 NNW 28 41 15 22 1001.5 1001.5 1.0
18/11:38am 14.1 9.4 12.0 87 1.1 NNW 28 39 15 21 1001.2 1001.2 0.4
18/11:31am 13.9 8.4 11.9 88 1.1 NNW 32 50 17 27 1001.1 1001.1 0.2
18/11:30am 13.8 8.1 11.7 87 1.1 NNW 33 50 18 27 1001.1 1001.1 0.2
18/11:23am 13.5 7.2 10.9 84 1.4 NNW 35 50 19 27 1001.2 1001.2 0.2
18/11:00am 16.9 10.9 8.8 59 4.2 N 30 43 16 23 1001.0 1001.0 0.0
18/10:30am 16.9 10.6 8.8 59 4.2 N 32 46 17 25 1001.4 1001.4 0.0
18/10:09am 17.4 11.1 8.8 57 4.4 N 32 50 17 27 1001.6 1001.6 0.0
18/10:00am 16.4 10.0 8.6 60 4.0 N 32 44 17 24 1001.6 1001.6 0.0
18/09:30am 14.7 9.6 9.1 69 2.9 N 26 39 14 21 1002.2 1002.2 0.0
18/09:00am 14.8 10.7 8.5 66 3.2 N 20 30 11 16 1002.2 1002.2 0.2
18/08:30am 14.5 9.5 8.2 66 3.2 N 24 35 13 19 1002.3 1002.3 0.2
18/08:00am 14.2 9.6 8.2 67 3.0 N 22 35 12 19 1002.5 1002.5 0.2
18/07:30am 13.4 8.0 7.8 69 2.8 N 26 35 14 19 1002.5 1002.5 0.2
18/07:00am 13.0 8.9 7.7 70 2.6 N 19 32 10 17 1002.5 1002.5 0.2
18/06:30am 12.5 8.7 7.4 71 2.5 NNE 17 26 9 14 1002.6 1002.6 0.2
18/06:00am 12.1 8.2 7.2 72 2.4 N 17 26 9 14 1002.6 1002.6 0.2
18/05:30am 11.7 8.2 7.0 73 2.2 NNE 15 22 8 12 1002.8 1002.8 0.2
18/05:00am 11.6 8.4 6.9 73 2.3 NNE 13 24 7 13 1003.0 1003.0 0.2
18/04:30am 11.4 8.2 6.9 74 2.1 NNE 13 17 7 9 1003.0 1003.0 0.2
18/04:00am 11.5 8.4 7.2 75 2.1 NNE 13 22 7 12 1003.2 1003.2 0.2
18/03:30am 11.1 7.5 6.6 74 2.1 NNE 15 20 8 11 1003.6 1003.6 0.2
18/03:00am 11.1 7.5 6.6 74 2.1 NNE 15 20 8 11 1003.8 1003.8 0.2
18/02:30am 11.2 7.9 6.5 73 2.2 NNE 13 19 7 10 1004.1 1004.1 0.2
18/02:00am 11.0 7.8 6.7 75 2.0 NNE 13 19 7 10 1004.4 1004.4 0.2
18/01:30am 11.2 8.3 6.7 74 2.1 N 11 17 6 9 1004.8 1004.8 0.2
18/01:00am 11.1 8.2 6.6 74 2.1 NNE 11 19 6 10 1004.9 1004.9 0.2
18/12:30am 11.0 7.7 6.6 74 2.1 NNE 13 17 7 9 1005.1 1005.1 0.2
18/12:00am 11.0 7.7 6.6 74 2.1 NNE 13 17 7 9 1005.4 1005.4 0.2
 
Date/Time
EDT
Temp
°C
App
Temp
°C
Dew
Point
Rel
Hum
%
Delta-T
°C
Wind Press
QNH
hPa
Press
MSL
hPa
Rain
since 9 am
mm
Dir
 
Spd
km/h
Gust
km/h
Spd
kts
Gust
kts
17/11:30pm 10.8 7.6 6.7 76 1.9 NNE 13 19 7 10 1005.8 1005.8 0.2
17/11:00pm 10.3 7.4 6.5 77 1.8 NNE 11 17 6 9 1006.1 1006.1 0.2
17/10:30pm 10.5 7.2 6.3 75 2.0 NNE 13 19 7 10 1006.4 1006.4 0.2
17/10:00pm 11.5 8.2 6.6 72 2.3 NNE 13 17 7 9 1006.4 1006.4 0.2
17/09:30pm 12.1 9.3 6.8 70 2.5 NNE 11 17 6 9 1006.4 1006.4 0.2
17/09:00pm 12.8 8.5 7.0 68 2.8 NNW 19 24 10 13 1006.5 1006.5 0.2
17/08:30pm 13.2 8.7 7.0 66 3.0 NNW 20 30 11 16 1006.4 1006.4 0.2
17/08:00pm 14.0 9.9 7.8 66 3.1 NNW 19 24 10 13 1006.5 1006.5 0.2
17/07:30pm 14.2 9.8 7.3 63 3.4 NNW 20 26 11 14 1006.3 1006.3 0.2
17/07:00pm 14.8 9.9 7.1 60 3.8 NNW 22 30 12 16 1006.3 1006.3 0.2
17/06:30pm 15.2 9.9 7.0 58 4.0 NNW 24 32 13 17 1006.3 1006.3 0.2
17/06:00pm 15.3 9.7 5.5 52 4.7 NW 24 35 13 19 1006.3 1006.3 0.2
17/05:30pm 15.9 9.7 6.1 52 4.7 NW 28 37 15 20 1006.3 1006.3 0.2
17/05:00pm 15.6 11.0 6.3 54 4.5 NW 20 33 11 18 1006.4 1006.4 0.2
17/04:30pm 14.2 10.2 6.8 61 3.6 NNW 17 24 9 13 1006.5 1006.5 0.2
17/04:00pm 15.3 9.6 6.8 57 4.2 NW 26 33 14 18 1006.4 1006.4 0.2
17/03:30pm 16.4 11.1 8.6 60 4.0 NNW 26 35 14 19 1006.5 1006.5 0.2
17/03:00pm 16.8 11.8 8.2 57 4.4 NW 24 35 13 19 1006.4 1006.4 0.2
17/02:30pm 16.8 11.2 7.2 53 4.8 NW 26 35 14 19 1006.3 1006.3 0.2
17/02:00pm 15.1 10.0 5.9 54 4.4 NW 22 33 12 18 1006.4 1006.4 0.2
17/01:30pm 12.3 5.5 7.8 74 2.2 WNW 33 43 18 23 1006.6 1006.6 0.2
17/01:00pm 14.6 9.5 5.9 56 4.2 WNW 22 32 12 17 1006.4 1006.4 0.2
17/12:30pm 15.2 9.0 6.2 55 4.3 WNW 28 35 15 19 1006.4 1006.4 0.0
17/12:00pm 14.8 9.9 7.1 60 3.8 WNW 22 30 12 16 1006.0 1006.0 0.0
17/11:30am 15.6 10.9 7.9 60 3.9 W 22 32 12 17 1005.7 1005.7 0.0
17/11:00am 15.4 10.2 7.4 59 4.0 W 24 32 13 17 1005.3 1005.3 0.0
17/10:30am 14.4 8.2 6.3 58 3.9 W 28 39 15 21 1005.0 1005.0 0.0
17/10:00am 13.7 8.1 5.3 57 4.0 W 24 32 13 17 1005.0 1005.0 0.0
17/09:30am 14.7 9.9 7.5 62 3.6 WSW 22 32 12 17 1004.8 1004.8 0.0
17/09:00am 13.6 8.8 7.4 66 3.0 WSW 22 32 12 17 1004.5 1004.5 9.8

Other Formats:

Comma delimited format used in spreadsheet applications
http://www.bom.gov.au/fwo/IDT60801/IDT60801.94956.axf

JavaScript Object Notation format (JSON) in row-major order
http://www.bom.gov.au/fwo/IDT60801/IDT60801.94956.json